sensor_id;sensor_type;location;lat;lon;timestamp;pressure;altitude;pressure_sealevel;temperature;humidity
14253;BME280;7210;51.502;10.722;2023-03-25T00:01:39;98391.94;;;7.76;100.00
14253;BME280;7210;51.502;10.722;2023-03-25T00:04:06;98386.28;;;7.84;100.00
14253;BME280;7210;51.502;10.722;2023-03-25T00:06:33;98384.13;;;7.98;100.00
14253;BME280;7210;51.502;10.722;2023-03-25T00:09:01;98378.47;;;8.06;100.00
14253;BME280;7210;51.502;10.722;2023-03-25T00:11:30;98366.19;;;8.11;100.00
14253;BME280;7210;51.502;10.722;2023-03-25T00:13:58;98344.31;;;8.11;100.00
14253;BME280;7210;51.502;10.722;2023-03-25T00:16:25;98342.50;;;8.11;100.00
14253;BME280;7210;51.502;10.722;2023-03-25T00:18:52;98337.47;;;8.10;100.00
14253;BME280;7210;51.502;10.722;2023-03-25T00:21:20;98330.84;;;8.07;100.00
14253;BME280;7210;51.502;10.722;2023-03-25T00:23:48;98318.66;;;8.01;100.00
14253;BME280;7210;51.502;10.722;2023-03-25T00:26:15;98324.41;;;7.98;100.00
14253;BME280;7210;51.502;10.722;2023-03-25T00:28:44;98323.91;;;8.01;100.00
14253;BME280;7210;51.502;10.722;2023-03-25T00:31:13;98313.88;;;7.98;100.00
14253;BME280;7210;51.502;10.722;2023-03-25T00:33:40;98307.97;;;7.91;100.00
14253;BME280;7210;51.502;10.722;2023-03-25T00:36:09;98298.91;;;7.82;100.00
14253;BME280;7210;51.502;10.722;2023-03-25T00:38:38;98303.84;;;7.79;100.00
14253;BME280;7210;51.502;10.722;2023-03-25T00:41:15;98298.59;;;7.79;100.00
14253;BME280;7210;51.502;10.722;2023-03-25T00:43:53;98278.34;;;7.63;100.00
14253;BME280;7210;51.502;10.722;2023-03-25T00:46:22;98290.28;;;7.70;100.00
14253;BME280;7210;51.502;10.722;2023-03-25T00:48:52;98279.00;;;7.70;100.00
14253;BME280;7210;51.502;10.722;2023-03-25T00:51:19;98274.50;;;7.70;100.00
14253;BME280;7210;51.502;10.722;2023-03-25T00:53:50;98271.00;;;7.65;100.00
14253;BME280;7210;51.502;10.722;2023-03-25T00:56:18;98271.28;;;7.63;100.00
14253;BME280;7210;51.502;10.722;2023-03-25T00:58:45;98271.19;;;7.58;100.00
14253;BME280;7210;51.502;10.722;2023-03-25T01:01:17;98261.16;;;7.55;100.00
14253;BME280;7210;51.502;10.722;2023-03-25T01:03:49;98264.81;;;7.54;100.00
14253;BME280;7210;51.502;10.722;2023-03-25T01:06:24;98267.75;;;7.58;100.00
14253;BME280;7210;51.502;10.722;2023-03-25T01:08:55;98263.38;;;7.63;100.00
14253;BME280;7210;51.502;10.722;2023-03-25T01:11:27;98267.66;;;7.69;100.00
14253;BME280;7210;51.502;10.722;2023-03-25T01:13:55;98263.13;;;7.65;100.00
14253;BME280;7210;51.502;10.722;2023-03-25T01:16:26;98255.56;;;7.68;100.00
14253;BME280;7210;51.502;10.722;2023-03-25T01:18:55;98247.66;;;7.68;100.00
14253;BME280;7210;51.502;10.722;2023-03-25T01:21:24;98242.41;;;7.68;100.00
14253;BME280;7210;51.502;10.722;2023-03-25T01:23:51;98238.81;;;7.74;100.00
14253;BME280;7210;51.502;10.722;2023-03-25T01:26:19;98239.03;;;7.73;100.00
14253;BME280;7210;51.502;10.722;2023-03-25T01:28:46;98234.50;;;7.68;100.00
14253;BME280;7210;51.502;10.722;2023-03-25T01:31:14;98229.66;;;7.60;100.00
14253;BME280;7210;51.502;10.722;2023-03-25T01:33:43;98219.56;;;7.52;100.00
14253;BME280;7210;51.502;10.722;2023-03-25T01:36:10;98223.94;;;7.47;100.00
14253;BME280;7210;51.502;10.722;2023-03-25T01:38:39;98223.13;;;7.46;100.00
14253;BME280;7210;51.502;10.722;2023-03-25T01:41:08;98221.50;;;7.40;100.00
14253;BME280;7210;51.502;10.722;2023-03-25T01:43:35;98227.22;;;7.37;100.00
14253;BME280;7210;51.502;10.722;2023-03-25T01:46:03;98222.59;;;7.44;100.00
14253;BME280;7210;51.502;10.722;2023-03-25T01:48:35;98220.09;;;7.54;100.00
14253;BME280;7210;51.502;10.722;2023-03-25T01:51:13;98215.66;;;7.55;100.00
14253;BME280;7210;51.502;10.722;2023-03-25T01:53:43;98220.50;;;7.63;100.00
14253;BME280;7210;51.502;10.722;2023-03-25T01:56:15;98227.56;;;7.62;100.00
14253;BME280;7210;51.502;10.722;2023-03-25T01:58:44;98217.63;;;7.64;100.00
14253;BME280;7210;51.502;10.722;2023-03-25T02:01:13;98217.06;;;7.62;100.00
14253;BME280;7210;51.502;10.722;2023-03-25T02:03:43;98226.06;;;7.66;100.00
14253;BME280;7210;51.502;10.722;2023-03-25T02:06:21;98213.47;;;7.68;100.00
14253;BME280;7210;51.502;10.722;2023-03-25T02:08:55;98217.47;;;7.71;100.00
14253;BME280;7210;51.502;10.722;2023-03-25T02:11:24;98215.69;;;7.76;100.00
14253;BME280;7210;51.502;10.722;2023-03-25T02:13:56;98211.06;;;7.83;100.00
14253;BME280;7210;51.502;10.722;2023-03-25T02:16:32;98207.88;;;7.81;100.00
14253;BME280;7210;51.502;10.722;2023-03-25T02:19:54;98202.06;;;7.79;100.00
14253;BME280;7210;51.502;10.722;2023-03-25T02:23:11;98198.94;;;7.82;100.00
14253;BME280;7210;51.502;10.722;2023-03-25T02:26:42;98198.94;;;7.82;100.00
14253;BME280;7210;51.502;10.722;2023-03-25T02:29:34;98204.31;;;7.92;100.00
14253;BME280;7210;51.502;10.722;2023-03-25T02:32:29;98216.44;;;7.93;100.00
14253;BME280;7210;51.502;10.722;2023-03-25T02:35:25;98209.16;;;8.00;100.00
14253;BME280;7210;51.502;10.722;2023-03-25T02:38:15;98207.41;;;8.06;100.00
14253;BME280;7210;51.502;10.722;2023-03-25T02:40:56;98214.63;;;8.15;100.00
14253;BME280;7210;51.502;10.722;2023-03-25T02:43:30;98220.53;;;8.22;100.00
14253;BME280;7210;51.502;10.722;2023-03-25T02:46:06;98199.16;;;8.19;100.00
14253;BME280;7210;51.502;10.722;2023-03-25T02:48:39;98203.97;;;8.22;100.00
14253;BME280;7210;51.502;10.722;2023-03-25T02:51:13;98210.00;;;8.22;100.00
14253;BME280;7210;51.502;10.722;2023-03-25T02:53:47;98205.53;;;8.23;100.00
14253;BME280;7210;51.502;10.722;2023-03-25T02:56:18;98211.59;;;8.23;100.00
14253;BME280;7210;51.502;10.722;2023-03-25T02:58:49;98202.19;;;8.27;100.00
14253;BME280;7210;51.502;10.722;2023-03-25T03:01:20;98207.97;;;8.29;100.00
14253;BME280;7210;51.502;10.722;2023-03-25T03:03:48;98199.53;;;8.27;100.00
14253;BME280;7210;51.502;10.722;2023-03-25T03:06:17;98194.50;;;8.26;100.00
14253;BME280;7210;51.502;10.722;2023-03-25T03:09:14;98192.69;;;8.26;100.00
14253;BME280;7210;51.502;10.722;2023-03-25T03:14:56;98185.25;;;8.23;100.00
14253;BME280;7210;51.502;10.722;2023-03-25T03:17:36;98189.25;;;8.26;100.00
14253;BME280;7210;51.502;10.722;2023-03-25T03:20:17;98191.09;;;8.25;100.00
14253;BME280;7210;51.502;10.722;2023-03-25T03:22:52;98197.38;;;8.24;100.00
14253;BME280;7210;51.502;10.722;2023-03-25T03:25:30;98202.66;;;8.24;100.00
14253;BME280;7210;51.502;10.722;2023-03-25T03:28:05;98190.78;;;8.22;100.00
14253;BME280;7210;51.502;10.722;2023-03-25T03:30:43;98185.25;;;8.23;100.00
14253;BME280;7210;51.502;10.722;2023-03-25T03:33:18;98190.00;;;8.21;100.00
14253;BME280;7210;51.502;10.722;2023-03-25T03:35:54;98178.34;;;8.17;100.00
14253;BME280;7210;51.502;10.722;2023-03-25T03:38:27;98199.00;;;8.25;100.00
14253;BME280;7210;51.502;10.722;2023-03-25T03:41:03;98186.53;;;8.21;100.00
14253;BME280;7210;51.502;10.722;2023-03-25T03:43:39;98191.50;;;8.17;100.00
14253;BME280;7210;51.502;10.722;2023-03-25T03:46:14;98194.72;;;8.19;100.00
14253;BME280;7210;51.502;10.722;2023-03-25T03:48:47;98195.25;;;8.21;100.00
14253;BME280;7210;51.502;10.722;2023-03-25T03:51:19;98195.50;;;8.20;100.00
14253;BME280;7210;51.502;10.722;2023-03-25T03:53:55;98199.25;;;8.24;100.00
14253;BME280;7210;51.502;10.722;2023-03-25T03:56:30;98195.31;;;8.26;100.00
14253;BME280;7210;51.502;10.722;2023-03-25T03:59:06;98190.06;;;8.26;100.00
14253;BME280;7210;51.502;10.722;2023-03-25T04:01:40;98185.25;;;8.23;100.00
14253;BME280;7210;51.502;10.722;2023-03-25T04:04:14;98175.72;;;8.17;100.00
14253;BME280;7210;51.502;10.722;2023-03-25T04:06:53;98172.41;;;8.05;100.00
14253;BME280;7210;51.502;10.722;2023-03-25T04:09:27;98170.31;;;8.07;100.00
14253;BME280;7210;51.502;10.722;2023-03-25T04:12:05;98170.25;;;8.02;100.00
14253;BME280;7210;51.502;10.722;2023-03-25T04:14:36;98158.56;;;7.93;100.00
14253;BME280;7210;51.502;10.722;2023-03-25T04:17:04;98162.13;;;7.82;100.00
14253;BME280;7210;51.502;10.722;2023-03-25T04:19:32;98161.00;;;7.78;100.00
14253;BME280;7210;51.502;10.722;2023-03-25T04:22:00;98176.19;;;7.71;100.00
14253;BME280;7210;51.502;10.722;2023-03-25T04:24:27;98176.03;;;7.61;100.00
14253;BME280;7210;51.502;10.722;2023-03-25T04:26:56;98188.31;;;7.56;100.00
14253;BME280;7210;51.502;10.722;2023-03-25T04:29:25;98191.19;;;7.54;100.00
14253;BME280;7210;51.502;10.722;2023-03-25T04:31:53;98202.50;;;7.55;100.00
14253;BME280;7210;51.502;10.722;2023-03-25T04:34:21;98206.72;;;7.56;100.00
14253;BME280;7210;51.502;10.722;2023-03-25T04:36:48;98217.56;;;7.59;100.00
14253;BME280;7210;51.502;10.722;2023-03-25T04:39:17;98220.72;;;7.61;100.00
14253;BME280;7210;51.502;10.722;2023-03-25T04:41:47;98223.94;;;7.63;100.00
14253;BME280;7210;51.502;10.722;2023-03-25T04:44:15;98235.00;;;7.65;100.00
14253;BME280;7210;51.502;10.722;2023-03-25T04:46:44;98227.16;;;7.70;100.00
14253;BME280;7210;51.502;10.722;2023-03-25T04:49:19;98227.03;;;7.77;100.00
14253;BME280;7210;51.502;10.722;2023-03-25T04:51:47;98227.97;;;7.71;100.00
14253;BME280;7210;51.502;10.722;2023-03-25T04:54:16;98243.16;;;7.85;100.00
14253;BME280;7210;51.502;10.722;2023-03-25T04:56:44;98235.28;;;7.85;100.00
14253;BME280;7210;51.502;10.722;2023-03-25T04:59:12;98231.63;;;7.86;100.00
14253;BME280;7210;51.502;10.722;2023-03-25T05:01:42;98238.53;;;7.92;100.00
14253;BME280;7210;51.502;10.722;2023-03-25T05:04:17;98223.31;;;7.94;100.00
14253;BME280;7210;51.502;10.722;2023-03-25T05:06:47;98224.03;;;7.90;100.00
14253;BME280;7210;51.502;10.722;2023-03-25T05:09:18;98222.69;;;7.87;100.00
14253;BME280;7210;51.502;10.722;2023-03-25T05:11:48;98223.16;;;7.84;100.00
14253;BME280;7210;51.502;10.722;2023-03-25T05:14:18;98220.47;;;7.79;100.00
14253;BME280;7210;51.502;10.722;2023-03-25T05:16:47;98203.91;;;7.62;100.00
14253;BME280;7210;51.502;10.722;2023-03-25T05:19:16;98217.22;;;7.72;100.00
14253;BME280;7210;51.502;10.722;2023-03-25T05:21:45;98212.44;;;7.69;100.00
14253;BME280;7210;51.502;10.722;2023-03-25T05:24:13;98217.63;;;7.64;100.00
14253;BME280;7210;51.502;10.722;2023-03-25T05:26:41;98234.50;;;7.68;100.00
14253;BME280;7210;51.502;10.722;2023-03-25T05:29:11;98241.44;;;7.74;100.00
14253;BME280;7210;51.502;10.722;2023-03-25T05:31:40;98247.88;;;7.83;100.00
14253;BME280;7210;51.502;10.722;2023-03-25T05:34:08;98265.56;;;7.88;100.00
14253;BME280;7210;51.502;10.722;2023-03-25T05:36:35;98253.47;;;7.87;100.00
14253;BME280;7210;51.502;10.722;2023-03-25T05:39:03;98267.97;;;7.89;100.00
14253;BME280;7210;51.502;10.722;2023-03-25T05:41:31;98278.50;;;7.89;100.00
14253;BME280;7210;51.502;10.722;2023-03-25T05:44:04;98281.66;;;7.91;100.00
14253;BME280;7210;51.502;10.722;2023-03-25T05:46:32;98284.84;;;7.93;100.00
14253;BME280;7210;51.502;10.722;2023-03-25T05:48:59;98287.44;;;7.88;100.00
14253;BME280;7210;51.502;10.722;2023-03-25T05:51:31;98296.34;;;7.87;100.00
14253;BME280;7210;51.502;10.722;2023-03-25T05:54:03;98300.31;;;7.90;100.00
14253;BME280;7210;51.502;10.722;2023-03-25T05:56:33;98312.47;;;7.91;100.00
14253;BME280;7210;51.502;10.722;2023-03-25T05:59:01;98318.03;;;7.94;100.00
14253;BME280;7210;51.502;10.722;2023-03-25T06:01:29;98324.41;;;7.98;100.00
14253;BME280;7210;51.502;10.722;2023-03-25T06:04:00;98331.81;;;8.01;100.00
14253;BME280;7210;51.502;10.722;2023-03-25T06:06:29;98343.22;;;8.07;100.00
14253;BME280;7210;51.502;10.722;2023-03-25T06:08:56;98353.50;;;8.08;100.00
14253;BME280;7210;51.502;10.722;2023-03-25T06:11:24;98350.09;;;8.08;100.00
14253;BME280;7210;51.502;10.722;2023-03-25T06:13:51;98367.13;;;8.05;100.00
14253;BME280;7210;51.502;10.722;2023-03-25T06:16:21;98371.59;;;8.05;100.00
14253;BME280;7210;51.502;10.722;2023-03-25T06:18:52;98365.47;;;7.99;100.00
14253;BME280;7210;51.502;10.722;2023-03-25T06:21:24;98369.06;;;7.93;100.00
14253;BME280;7210;51.502;10.722;2023-03-25T06:23:54;98385.31;;;7.90;100.00
14253;BME280;7210;51.502;10.722;2023-03-25T06:26:23;98375.09;;;7.77;100.00
14253;BME280;7210;51.502;10.722;2023-03-25T06:28:50;98382.16;;;7.88;100.00
14253;BME280;7210;51.502;10.722;2023-03-25T06:31:20;98390.09;;;7.93;100.00
14253;BME280;7210;51.502;10.722;2023-03-25T06:33:51;98384.28;;;7.91;100.00
14253;BME280;7210;51.502;10.722;2023-03-25T06:36:19;98378.47;;;7.89;100.00
14253;BME280;7210;51.502;10.722;2023-03-25T06:38:49;98376.63;;;7.90;100.00
14253;BME280;7210;51.502;10.722;2023-03-25T06:41:19;98367.94;;;7.89;100.00
14253;BME280;7210;51.502;10.722;2023-03-25T06:43:59;98369.78;;;7.89;100.00
14253;BME280;7210;51.502;10.722;2023-03-25T06:46:44;98353.66;;;7.85;100.00
14253;BME280;7210;51.502;10.722;2023-03-25T06:49:11;98339.09;;;7.78;100.00
14253;BME280;7210;51.502;10.722;2023-03-25T06:51:38;98330.97;;;7.79;100.00
14253;BME280;7210;51.502;10.722;2023-03-25T06:54:06;98331.28;;;7.83;100.00
14253;BME280;7210;51.502;10.722;2023-03-25T06:56:34;98324.66;;;7.80;100.00
14253;BME280;7210;51.502;10.722;2023-03-25T06:59:02;98324.66;;;7.80;100.00
14253;BME280;7210;51.502;10.722;2023-03-25T07:01:30;98350.09;;;7.91;100.00
14253;BME280;7210;51.502;10.722;2023-03-25T07:03:57;98336.88;;;7.86;100.00
14253;BME280;7210;51.502;10.722;2023-03-25T07:06:24;98356.63;;;8.05;100.00
14253;BME280;7210;51.502;10.722;2023-03-25T07:08:51;98348.84;;;8.15;100.00
14253;BME280;7210;51.502;10.722;2023-03-25T07:11:25;98354.78;;;8.22;100.00
14253;BME280;7210;51.502;10.722;2023-03-25T07:13:54;98355.34;;;8.24;100.00
14253;BME280;7210;51.502;10.722;2023-03-25T07:16:24;98346.72;;;8.12;100.00
14253;BME280;7210;51.502;10.722;2023-03-25T07:18:51;98348.50;;;8.07;100.00
14253;BME280;7210;51.502;10.722;2023-03-25T07:21:19;98354.53;;;8.07;100.00
14253;BME280;7210;51.502;10.722;2023-03-25T07:23:47;98356.13;;;8.08;100.00
14253;BME280;7210;51.502;10.722;2023-03-25T07:26:14;98359.34;;;8.10;100.00
14253;BME280;7210;51.502;10.722;2023-03-25T07:28:42;98360.13;;;8.11;100.00
14253;BME280;7210;51.502;10.722;2023-03-25T07:31:13;98364.19;;;8.18;100.00
14253;BME280;7210;51.502;10.722;2023-03-25T07:33:42;98362.78;;;8.27;100.00
14253;BME280;7210;51.502;10.722;2023-03-25T07:36:11;98350.16;;;8.29;100.00
14253;BME280;7210;51.502;10.722;2023-03-25T07:38:39;98352.69;;;8.41;100.00
14253;BME280;7210;51.502;10.722;2023-03-25T07:41:08;98354.66;;;8.50;100.00
14253;BME280;7210;51.502;10.722;2023-03-25T07:43:36;98349.38;;;8.50;100.00
14253;BME280;7210;51.502;10.722;2023-03-25T07:46:19;98361.22;;;8.69;100.00
14253;BME280;7210;51.502;10.722;2023-03-25T07:48:46;98349.94;;;8.74;100.00
14253;BME280;7210;51.502;10.722;2023-03-25T07:51:14;98358.00;;;8.84;100.00
14253;BME280;7210;51.502;10.722;2023-03-25T07:53:41;98367.28;;;8.91;100.00
14253;BME280;7210;51.502;10.722;2023-03-25T07:56:10;98362.19;;;9.06;100.00
14253;BME280;7210;51.502;10.722;2023-03-25T07:58:38;98367.94;;;9.25;100.00
14253;BME280;7210;51.502;10.722;2023-03-25T08:01:05;98363.56;;;9.35;100.00
14253;BME280;7210;51.502;10.722;2023-03-25T08:03:34;98381.75;;;9.63;100.00
14253;BME280;7210;51.502;10.722;2023-03-25T08:06:05;98376.16;;;9.86;100.00
14253;BME280;7210;51.502;10.722;2023-03-25T08:08:32;98366.28;;;10.03;100.00
14253;BME280;7210;51.502;10.722;2023-03-25T08:11:00;98368.53;;;10.21;100.00
14253;BME280;7210;51.502;10.722;2023-03-25T08:13:28;98353.84;;;10.35;98.72
14253;BME280;7210;51.502;10.722;2023-03-25T08:15:58;98332.22;;;10.43;96.98
14253;BME280;7210;51.502;10.722;2023-03-25T08:18:26;98297.31;;;10.41;95.27
14253;BME280;7210;51.502;10.722;2023-03-25T08:20:54;98277.19;;;10.30;93.83
14253;BME280;7210;51.502;10.722;2023-03-25T08:23:21;98271.19;;;10.40;92.99
14253;BME280;7210;51.502;10.722;2023-03-25T08:25:51;98305.88;;;10.63;92.93
14253;BME280;7210;51.502;10.722;2023-03-25T08:28:20;98309.63;;;10.77;92.65
14253;BME280;7210;51.502;10.722;2023-03-25T08:30:48;98279.00;;;10.81;91.11
14253;BME280;7210;51.502;10.722;2023-03-25T08:33:20;98271.59;;;10.83;90.36
14253;BME280;7210;51.502;10.722;2023-03-25T08:35:48;98281.66;;;10.91;90.10
14253;BME280;7210;51.502;10.722;2023-03-25T08:38:17;98261.53;;;10.80;89.58
14253;BME280;7210;51.502;10.722;2023-03-25T08:40:44;98263.63;;;10.78;89.53
14253;BME280;7210;51.502;10.722;2023-03-25T08:43:11;98279.50;;;10.78;89.37
14253;BME280;7210;51.502;10.722;2023-03-25T08:45:38;98282.69;;;10.75;89.06
14253;BME280;7210;51.502;10.722;2023-03-25T08:48:06;98326.09;;;10.94;89.62
14253;BME280;7210;51.502;10.722;2023-03-25T08:50:33;98310.75;;;10.96;89.19
14253;BME280;7210;51.502;10.722;2023-03-25T08:53:00;98295.38;;;10.88;88.70
14253;BME280;7210;51.502;10.722;2023-03-25T08:55:30;98320.78;;;10.94;88.95
14253;BME280;7210;51.502;10.722;2023-03-25T08:58:01;98310.50;;;10.93;88.40
14253;BME280;7210;51.502;10.722;2023-03-25T09:00:31;98305.16;;;10.83;88.26
14253;BME280;7210;51.502;10.722;2023-03-25T09:02:59;98300.16;;;10.81;87.92
14253;BME280;7210;51.502;10.722;2023-03-25T09:05:27;98341.97;;;10.99;87.99
14253;BME280;7210;51.502;10.722;2023-03-25T09:07:54;98297.03;;;10.99;86.88
14253;BME280;7210;51.502;10.722;2023-03-25T09:10:22;98342.59;;;11.31;87.28
14253;BME280;7210;51.502;10.722;2023-03-25T09:12:50;98402.00;;;11.75;87.72
14253;BME280;7210;51.502;10.722;2023-03-25T09:15:17;98405.16;;;12.02;87.06
14253;BME280;7210;51.502;10.722;2023-03-25T09:17:44;98366.50;;;12.06;85.60
14253;BME280;7210;51.502;10.722;2023-03-25T09:20:12;98359.06;;;12.18;85.36
14253;BME280;7210;51.502;10.722;2023-03-25T09:22:40;98342.09;;;12.24;83.82
14253;BME280;7210;51.502;10.722;2023-03-25T09:25:08;98391.31;;;12.65;83.82
14253;BME280;7210;51.502;10.722;2023-03-25T09:27:36;98318.13;;;12.59;82.15
14253;BME280;7210;51.502;10.722;2023-03-25T09:30:08;98315.44;;;12.74;81.20
14253;BME280;7210;51.502;10.722;2023-03-25T09:32:36;98246.59;;;12.54;80.07
14253;BME280;7210;51.502;10.722;2023-03-25T09:35:04;98171.72;;;12.23;79.04
14253;BME280;7210;51.502;10.722;2023-03-25T09:37:31;98134.53;;;11.85;78.55
14253;BME280;7210;51.502;10.722;2023-03-25T09:39:58;98194.13;;;11.72;79.24
14253;BME280;7210;51.502;10.722;2023-03-25T09:42:55;98174.31;;;11.40;79.21
14253;BME280;7210;51.502;10.722;2023-03-25T09:45:34;98247.31;;;11.41;80.46
14253;BME280;7210;51.502;10.722;2023-03-25T09:48:15;98284.91;;;11.38;81.04
14253;BME280;7210;51.502;10.722;2023-03-25T09:50:48;98299.72;;;11.34;80.65
14253;BME280;7210;51.502;10.722;2023-03-25T09:53:26;98309.78;;;11.37;80.65
14253;BME280;7210;51.502;10.722;2023-03-25T09:55:55;98310.81;;;11.21;80.75
14253;BME280;7210;51.502;10.722;2023-03-25T09:58:35;98335.69;;;11.20;80.99
14253;BME280;7210;51.502;10.722;2023-03-25T10:01:29;98353.66;;;11.18;81.16
14253;BME280;7210;51.502;10.722;2023-03-25T10:04:25;98328.78;;;11.09;80.21
14253;BME280;7210;51.502;10.722;2023-03-25T10:07:10;98362.13;;;11.15;80.41
14253;BME280;7210;51.502;10.722;2023-03-25T10:09:50;98355.47;;;11.07;80.16
14253;BME280;7210;51.502;10.722;2023-03-25T10:12:37;98367.91;;;11.07;80.26
14253;BME280;7210;51.502;10.722;2023-03-25T10:15:20;98377.50;;;11.23;79.76
14253;BME280;7210;51.502;10.722;2023-03-25T10:18:16;98410.88;;;11.49;79.80
14253;BME280;7210;51.502;10.722;2023-03-25T10:20:58;98389.72;;;11.54;78.98
14253;BME280;7210;51.502;10.722;2023-03-25T10:23:36;98371.25;;;11.59;78.32
14253;BME280;7210;51.502;10.722;2023-03-25T10:26:11;98358.28;;;11.57;78.31
14253;BME280;7210;51.502;10.722;2023-03-25T10:28:48;98381.56;;;11.65;78.32
14253;BME280;7210;51.502;10.722;2023-03-25T10:31:19;98345.56;;;11.64;77.53
14253;BME280;7210;51.502;10.722;2023-03-25T10:33:54;98354.06;;;11.81;76.97
14253;BME280;7210;51.502;10.722;2023-03-25T10:36:31;98385.59;;;11.98;77.12
14253;BME280;7210;51.502;10.722;2023-03-25T10:39:01;98333.66;;;11.92;76.22
14253;BME280;7210;51.502;10.722;2023-03-25T10:41:35;98313.53;;;11.86;75.94
14253;BME280;7210;51.502;10.722;2023-03-25T10:44:07;98356.97;;;11.90;76.43
14253;BME280;7210;51.502;10.722;2023-03-25T10:46:39;98388.75;;;12.10;76.43
14253;BME280;7210;51.502;10.722;2023-03-25T10:49:17;98312.44;;;11.97;75.41
14253;BME280;7210;51.502;10.722;2023-03-25T10:51:47;98388.22;;;12.13;75.86
14253;BME280;7210;51.502;10.722;2023-03-25T10:54:17;98397.22;;;12.17;75.87
14253;BME280;7210;51.502;10.722;2023-03-25T10:56:48;98370.47;;;12.08;76.11
14253;BME280;7210;51.502;10.722;2023-03-25T10:59:24;98375.50;;;12.00;75.96
14253;BME280;7210;51.502;10.722;2023-03-25T11:01:54;98397.75;;;11.89;76.53
14253;BME280;7210;51.502;10.722;2023-03-25T11:04:35;98471.41;;;12.07;77.39
14253;BME280;7210;51.502;10.722;2023-03-25T11:07:15;98480.97;;;12.23;77.09
14253;BME280;7210;51.502;10.722;2023-03-25T11:09:44;98447.03;;;12.25;76.57
14253;BME280;7210;51.502;10.722;2023-03-25T11:12:16;98506.41;;;12.54;76.61
14253;BME280;7210;51.502;10.722;2023-03-25T11:14:53;98539.00;;;12.84;76.43
14253;BME280;7210;51.502;10.722;2023-03-25T11:17:22;98522.28;;;13.14;74.54
14253;BME280;7210;51.502;10.722;2023-03-25T11:19:58;98502.00;;;13.43;74.31
14253;BME280;7210;51.502;10.722;2023-03-25T11:22:30;98447.31;;;13.47;73.40
14253;BME280;7210;51.502;10.722;2023-03-25T11:25:05;98460.50;;;13.62;72.37
14253;BME280;7210;51.502;10.722;2023-03-25T11:27:44;98371.13;;;13.42;69.02
14253;BME280;7210;51.502;10.722;2023-03-25T11:30:18;98275.00;;;12.38;71.33
14253;BME280;7210;51.502;10.722;2023-03-25T11:32:57;98328.91;;;11.59;74.86
14253;BME280;7210;51.502;10.722;2023-03-25T11:35:31;98409.22;;;11.23;76.62
14253;BME280;7210;51.502;10.722;2023-03-25T11:38:15;98499.16;;;11.18;77.74
14253;BME280;7210;51.502;10.722;2023-03-25T11:40:52;98486.72;;;11.18;76.98
14253;BME280;7210;51.502;10.722;2023-03-25T11:43:23;98514.59;;;11.36;76.94
14253;BME280;7210;51.502;10.722;2023-03-25T11:45:53;98576.69;;;11.65;77.29
14253;BME280;7210;51.502;10.722;2023-03-25T11:48:23;98553.00;;;12.00;75.43
14253;BME280;7210;51.502;10.722;2023-03-25T11:51:01;98400.94;;;12.06;72.84
14253;BME280;7210;51.502;10.722;2023-03-25T11:53:32;98375.25;;;12.11;72.39
14253;BME280;7210;51.502;10.722;2023-03-25T11:56:03;98392.44;;;12.24;72.42
14253;BME280;7210;51.502;10.722;2023-03-25T11:58:35;98367.00;;;12.18;72.14
14253;BME280;7210;51.502;10.722;2023-03-25T12:01:07;98353.75;;;12.23;71.44
14253;BME280;7210;51.502;10.722;2023-03-25T12:03:44;98269.22;;;12.21;70.10
14253;BME280;7210;51.502;10.722;2023-03-25T12:06:18;98273.22;;;12.19;69.77
14253;BME280;7210;51.502;10.722;2023-03-25T12:08:49;98369.66;;;12.38;70.52
14253;BME280;7210;51.502;10.722;2023-03-25T12:11:23;98425.25;;;12.63;70.52
14253;BME280;7210;51.502;10.722;2023-03-25T12:14:22;98434.22;;;12.92;69.75
14253;BME280;7210;51.502;10.722;2023-03-25T12:17:00;98353.06;;;12.86;68.88
14253;BME280;7210;51.502;10.722;2023-03-25T12:19:50;98377.22;;;12.94;69.39
14253;BME280;7210;51.502;10.722;2023-03-25T12:22:38;98335.78;;;12.93;69.04
14253;BME280;7210;51.502;10.722;2023-03-25T12:25:27;98479.22;;;13.37;69.63
14253;BME280;7210;51.502;10.722;2023-03-25T12:28:46;98346.19;;;13.38;68.02
14253;BME280;7210;51.502;10.722;2023-03-25T12:31:35;98346.44;;;13.42;67.97
14253;BME280;7210;51.502;10.722;2023-03-25T12:34:17;98405.84;;;13.51;68.64
14253;BME280;7210;51.502;10.722;2023-03-25T12:37:00;98323.84;;;13.44;67.36
14253;BME280;7210;51.502;10.722;2023-03-25T12:39:47;98309.25;;;13.47;67.00
14253;BME280;7210;51.502;10.722;2023-03-25T12:42:38;98399.81;;;13.84;67.38
14253;BME280;7210;51.502;10.722;2023-03-25T12:45:52;98320.19;;;14.02;65.83
14253;BME280;7210;51.502;10.722;2023-03-25T12:48:42;98211.22;;;13.79;64.48
14253;BME280;7210;51.502;10.722;2023-03-25T12:51:24;98253.75;;;13.74;64.76
14253;BME280;7210;51.502;10.722;2023-03-25T12:54:05;98224.06;;;13.67;64.99
14253;BME280;7210;51.502;10.722;2023-03-25T12:56:48;98225.81;;;13.53;64.68
14253;BME280;7210;51.502;10.722;2023-03-25T12:59:37;98180.19;;;13.17;64.94
14253;BME280;7210;51.502;10.722;2023-03-25T13:02:27;98273.84;;;13.23;65.70
14253;BME280;7210;51.502;10.722;2023-03-25T13:05:14;98369.41;;;13.13;67.59
14253;BME280;7210;51.502;10.722;2023-03-25T13:07:55;98589.69;;;13.03;71.19
14253;BME280;7210;51.502;10.722;2023-03-25T13:10:29;98626.84;;;13.23;71.11
14253;BME280;7210;51.502;10.722;2023-03-25T13:13:06;98556.25;;;13.22;69.80
14253;BME280;7210;51.502;10.722;2023-03-25T13:15:41;98589.09;;;13.36;69.95
14253;BME280;7210;51.502;10.722;2023-03-25T13:18:14;98612.47;;;13.44;70.11
14253;BME280;7210;51.502;10.722;2023-03-25T13:20:48;98586.97;;;13.48;69.93
14253;BME280;7210;51.502;10.722;2023-03-25T13:23:21;98553.00;;;13.45;69.28
14253;BME280;7210;51.502;10.722;2023-03-25T13:25:54;98520.88;;;13.36;69.28
14253;BME280;7210;51.502;10.722;2023-03-25T13:28:31;98506.03;;;13.35;68.96
14253;BME280;7210;51.502;10.722;2023-03-25T13:31:05;98486.63;;;13.35;68.34
14253;BME280;7210;51.502;10.722;2023-03-25T13:33:39;98463.75;;;13.49;67.62
14253;BME280;7210;51.502;10.722;2023-03-25T13:36:16;98407.16;;;13.53;66.97